Time;durP1;ratioP1;P1;durP2;ratioP2;P2;SDS_P1;SDS_P2;PMS_P1;PMS_P2;Temp;Humidity;BMP_temperature;BMP_pressure;BME280_temperature;BME280_humidity;BME280_pressure;Samples;Min_cycle;Max_cycle;Signal;HPM_P1;HPM_P2
2021/03/18 00:00:58;;;;;;;;;;;12.30;59.10;;;;;;2099321;28;719;-52
2021/03/18 00:02:17;;;;;;;;;;;12.30;59.00;;;;;;2099090;28;723;-48
2021/03/18 00:03:37;;;;;;;;;;;12.30;59.00;;;;;;2099230;28;712;-51
2021/03/18 00:04:56;;;;;;;;;;;12.30;59.10;;;;;;2098750;28;743;-51
2021/03/18 00:06:15;;;;;;;;;;;12.30;59.00;;;;;;2098812;28;703;-52
2021/03/18 00:07:34;;;;;;;;;;;12.20;59.00;;;;;;2098419;28;785;-51
2021/03/18 00:08:53;;;;;;;;;;;12.20;59.00;;;;;;2098607;28;1363;-49
2021/03/18 00:10:12;;;;;;;;;;;12.20;59.50;;;;;;2098822;28;726;-52
2021/03/18 00:11:31;;;;;;;;;;;12.20;59.60;;;;;;2098825;28;721;-52
2021/03/18 00:12:50;;;;;;;;;;;12.20;59.10;;;;;;2097463;28;1031;-49
2021/03/18 00:14:11;;;;;;;;;;;12.20;59.10;;;;;;2095671;28;968;-53
2021/03/18 00:15:31;;;;;;;;;;;12.20;59.20;;;;;;2081642;28;1910;-50
2021/03/18 00:16:50;;;;;;;;;;;12.20;59.20;;;;;;2093943;28;732;-51
2021/03/18 00:18:10;;;;;;;;;;;12.20;59.20;;;;;;2095195;28;710;-48
2021/03/18 00:19:29;;;;;;;;;;;12.20;59.20;;;;;;2098683;28;754;-49
2021/03/18 00:20:48;;;;;;;;;;;12.20;59.20;;;;;;2098860;28;718;-49
2021/03/18 00:22:07;;;;;;;;;;;12.20;59.20;;;;;;2098734;28;723;-48
2021/03/18 00:23:27;;;;;;;;;;;12.20;59.20;;;;;;2099095;28;710;-51
2021/03/18 00:24:46;;;;;;;;;;;12.20;59.30;;;;;;2098126;28;724;-54
2021/03/18 00:26:06;;;;;;;;;;;12.20;59.20;;;;;;2098862;28;752;-50
2021/03/18 00:27:25;;;;;;;;;;;12.20;59.20;;;;;;2090126;28;737;-48
2021/03/18 00:28:44;;;;;;;;;;;12.20;59.30;;;;;;2095204;28;1452;-52
2021/03/18 00:30:03;;;;;;;;;;;12.20;59.30;;;;;;2099060;28;784;-50
2021/03/18 00:31:23;;;;;;;;;;;12.20;59.30;;;;;;2098738;28;825;-53
2021/03/18 00:32:42;;;;;;;;;;;12.20;59.30;;;;;;2099005;28;793;-48
2021/03/18 00:34:01;;;;;;;;;;;12.20;59.30;;;;;;2098870;28;716;-49
2021/03/18 00:35:21;;;;;;;;;;;12.10;59.20;;;;;;2098095;28;775;-52
2021/03/18 00:36:40;;;;;;;;;;;12.10;59.40;;;;;;2098895;28;720;-49
2021/03/18 00:37:59;;;;;;;;;;;12.10;59.40;;;;;;2098831;28;728;-52
2021/03/18 00:39:19;;;;;;;;;;;12.10;59.30;;;;;;2097952;28;1395;-51
2021/03/18 00:40:39;;;;;;;;;;;12.10;59.40;;;;;;2094788;28;767;-47
2021/03/18 00:41:59;;;;;;;;;;;12.10;59.40;;;;;;2098553;28;712;-50
2021/03/18 00:43:18;;;;;;;;;;;12.10;60.00;;;;;;2093447;28;1010;-47
2021/03/18 00:44:38;;;;;;;;;;;12.10;59.50;;;;;;2085404;28;1022;-47
2021/03/18 00:45:57;;;;;;;;;;;12.10;59.50;;;;;;2078807;28;1039;-49
2021/03/18 00:47:18;;;;;;;;;;;12.10;59.60;;;;;;2091982;28;740;-49
2021/03/18 00:48:38;;;;;;;;;;;12.10;59.60;;;;;;2098590;28;1348;-49
2021/03/18 00:49:57;;;;;;;;;;;12.10;59.50;;;;;;2098344;28;753;-53
2021/03/18 00:51:16;;;;;;;;;;;12.10;59.50;;;;;;2095211;28;1324;-49
2021/03/18 00:52:36;;;;;;;;;;;12.10;59.50;;;;;;2089044;28;942;-48
2021/03/18 00:53:55;;;;;;;;;;;12.10;59.50;;;;;;2091506;28;779;-50
2021/03/18 00:55:15;;;;;;;;;;;12.10;59.50;;;;;;2097678;28;696;-50
2021/03/18 00:56:35;;;;;;;;;;;12.10;60.20;;;;;;2094620;28;717;-50
2021/03/18 00:57:54;;;;;;;;;;;12.10;59.50;;;;;;2086417;28;732;-52
2021/03/18 00:59:14;;;;;;;;;;;12.10;59.60;;;;;;2091745;28;1487;-49
2021/03/18 01:00:46;;;;;;;;;;;12.10;59.60;;;;;;2094197;28;802;-48
2021/03/18 01:02:06;;;;;;;;;;;12.00;59.60;;;;;;2088136;28;742;-49
2021/03/18 01:03:26;;;;;;;;;;;12.00;59.50;;;;;;2091645;28;730;-53
2021/03/18 01:04:47;;;;;;;;;;;12.00;59.50;;;;;;2094811;28;786;-50
2021/03/18 01:06:09;;;;;;;;;;;12.00;59.50;;;;;;2094776;28;875;-50
2021/03/18 01:07:29;;;;;;;;;;;12.00;59.50;;;;;;2098456;28;784;-52
2021/03/18 01:08:49;;;;;;;;;;;12.00;60.10;;;;;;2097839;28;1487;-53
2021/03/18 01:10:08;;;;;;;;;;;12.00;60.10;;;;;;2094639;28;783;-47
2021/03/18 01:11:33;;;;;;;;;;;12.00;59.60;;;;;;2098456;28;843;-49
2021/03/18 01:12:52;;;;;;;;;;;12.00;59.60;;;;;;2097507;28;929;-49
2021/03/18 01:14:12;;;;;;;;;;;12.00;59.70;;;;;;2095734;28;1101;-52
2021/03/18 01:15:31;;;;;;;;;;;12.00;59.70;;;;;;2082089;28;1910;-50
2021/03/18 01:16:50;;;;;;;;;;;12.00;59.70;;;;;;2096703;28;794;-48
2021/03/18 01:18:10;;;;;;;;;;;12.00;59.80;;;;;;2098671;28;782;-52
2021/03/18 01:19:29;;;;;;;;;;;12.00;60.40;;;;;;2097798;28;777;-53
2021/03/18 01:20:48;;;;;;;;;;;12.00;59.80;;;;;;2098084;28;768;-52
2021/03/18 01:22:07;;;;;;;;;;;12.00;60.40;;;;;;2097772;28;770;-50
2021/03/18 01:23:26;;;;;;;;;;;12.00;59.80;;;;;;2094749;28;789;-50
2021/03/18 01:24:46;;;;;;;;;;;12.00;59.80;;;;;;2097280;28;766;-54
2021/03/18 01:26:05;;;;;;;;;;;12.00;59.80;;;;;;2098169;28;756;-51
2021/03/18 01:27:24;;;;;;;;;;;12.00;60.00;;;;;;2098319;28;740;-51
2021/03/18 01:28:43;;;;;;;;;;;12.00;60.20;;;;;;2098205;28;1340;-51
2021/03/18 01:30:10;;;;;;;;;;;12.00;59.90;;;;;;2098184;28;706;-48
2021/03/18 01:31:29;;;;;;;;;;;12.00;59.80;;;;;;2098492;28;769;-49
2021/03/18 01:32:48;;;;;;;;;;;12.00;59.80;;;;;;2097618;28;762;-51
2021/03/18 01:34:07;;;;;;;;;;;12.00;59.70;;;;;;2086262;28;760;-52
2021/03/18 01:35:27;;;;;;;;;;;12.00;59.70;;;;;;2090433;28;712;-51
2021/03/18 01:36:46;;;;;;;;;;;12.00;59.70;;;;;;2097641;28;785;-50
2021/03/18 01:38:05;;;;;;;;;;;12.00;59.70;;;;;;2097758;28;763;-51
2021/03/18 01:39:24;;;;;;;;;;;12.00;59.50;;;;;;2098031;28;861;-49
2021/03/18 01:40:44;;;;;;;;;;;12.00;59.50;;;;;;2097775;28;772;-50
2021/03/18 01:42:03;;;;;;;;;;;12.00;59.40;;;;;;2094372;28;803;-48
2021/03/18 01:43:22;;;;;;;;;;;12.00;59.40;;;;;;2089437;28;756;-50
2021/03/18 01:44:41;;;;;;;;;;;12.00;59.30;;;;;;2090246;28;889;-51
2021/03/18 01:46:00;;;;;;;;;;;12.00;59.30;;;;;;2094220;28;1206;-48
2021/03/18 01:47:20;;;;;;;;;;;12.00;59.30;;;;;;2097522;28;725;-51
2021/03/18 01:48:39;;;;;;;;;;;12.00;59.80;;;;;;2098046;28;1342;-49
2021/03/18 01:49:59;;;;;;;;;;;12.00;59.70;;;;;;2098198;28;727;-50
2021/03/18 01:51:19;;;;;;;;;;;12.00;59.20;;;;;;2098282;28;736;-51
2021/03/18 01:52:38;;;;;;;;;;;12.10;59.30;;;;;;2089514;28;744;-52
2021/03/18 01:53:57;;;;;;;;;;;12.00;59.20;;;;;;2094645;28;761;-48
2021/03/18 01:55:22;;;;;;;;;;;12.00;59.20;;;;;;2097605;28;732;-50
2021/03/18 01:56:41;;;;;;;;;;;12.00;59.20;;;;;;2098223;28;786;-49
2021/03/18 01:58:00;;;;;;;;;;;12.00;59.70;;;;;;2098186;28;718;-52
2021/03/18 01:59:19;;;;;;;;;;;12.00;59.80;;;;;;2097321;28;1355;-57
2021/03/18 02:00:39;;;;;;;;;;;12.00;59.20;;;;;;2097602;28;714;-53
2021/03/18 02:01:59;;;;;;;;;;;12.00;59.50;;;;;;2098180;28;708;-54
2021/03/18 02:03:18;;;;;;;;;;;12.00;59.30;;;;;;2089402;28;740;-52
2021/03/18 02:04:37;;;;;;;;;;;12.00;59.20;;;;;;2094271;28;717;-53
2021/03/18 02:05:57;;;;;;;;;;;12.00;59.20;;;;;;2097239;28;810;-49
2021/03/18 02:07:16;;;;;;;;;;;12.00;59.20;;;;;;2097781;28;729;-51
2021/03/18 02:08:36;;;;;;;;;;;12.00;59.20;;;;;;2097970;28;1325;-49
2021/03/18 02:09:55;;;;;;;;;;;12.00;59.20;;;;;;2097666;28;727;-50
2021/03/18 02:11:14;;;;;;;;;;;12.00;59.20;;;;;;2097944;28;724;-53
2021/03/18 02:12:34;;;;;;;;;;;12.00;59.20;;;;;;2097529;28;714;-50
2021/03/18 02:13:53;;;;;;;;;;;12.00;59.20;;;;;;2076256;28;1061;-52
2021/03/18 02:15:12;;;;;;;;;;;12.00;59.70;;;;;;2078975;28;1039;-50
2021/03/18 02:16:31;;;;;;;;;;;12.00;59.20;;;;;;2072495;28;1919;-51
2021/03/18 02:18:16;;;;;;;;;;;12.00;59.20;;;;;;2069733;28;711;-50
2021/03/18 02:19:54;;;;;;;;;;;12.00;59.20;;;;;;2080791;28;1478;-48
2021/03/18 02:21:32;;;;;;;;;;;12.00;59.20;;;;;;2081657;28;730;-49
2021/03/18 02:22:54;;;;;;;;;;;12.00;59.20;;;;;;2080849;28;721;-49
2021/03/18 02:24:21;;;;;;;;;;;12.00;59.20;;;;;;2078293;28;794;-49
2021/03/18 02:25:46;;;;;;;;;;;12.00;59.20;;;;;;2077294;28;730;-53
2021/03/18 02:27:14;;;;;;;;;;;12.00;59.20;;;;;;2077369;28;755;-51
2021/03/18 02:28:35;;;;;;;;;;;12.00;59.30;;;;;;2077997;28;1424;-48
2021/03/18 02:29:56;;;;;;;;;;;12.00;59.30;;;;;;2077039;28;709;-48
2021/03/18 02:31:28;;;;;;;;;;;12.00;59.30;;;;;;2069072;28;730;-48
2021/03/18 02:32:51;;;;;;;;;;;12.00;59.20;;;;;;2076910;28;741;-48
2021/03/18 02:34:21;;;;;;;;;;;12.00;59.30;;;;;;2077676;28;765;-51
2021/03/18 02:35:44;;;;;;;;;;;12.00;59.30;;;;;;2079928;28;1898;-47
2021/03/18 02:37:06;;;;;;;;;;;12.00;59.30;;;;;;2079887;28;738;-47
2021/03/18 02:38:31;;;;;;;;;;;11.90;59.80;;;;;;2068915;28;1464;-46
2021/03/18 02:39:55;;;;;;;;;;;12.00;59.40;;;;;;2075131;28;713;-49
2021/03/18 02:41:15;;;;;;;;;;;12.00;59.30;;;;;;2077286;28;728;-48
2021/03/18 02:42:34;;;;;;;;;;;12.00;59.80;;;;;;2087661;28;1301;-48
2021/03/18 02:43:56;;;;;;;;;;;12.00;59.30;;;;;;2092405;28;1261;-48
2021/03/18 02:45:15;;;;;;;;;;;12.00;59.30;;;;;;2087444;28;1295;-48
2021/03/18 02:46:34;;;;;;;;;;;12.00;59.40;;;;;;2087169;28;1353;-48
2021/03/18 02:47:54;;;;;;;;;;;12.00;59.40;;;;;;2085295;28;1420;-49
2021/03/18 02:49:13;;;;;;;;;;;12.00;59.30;;;;;;2081907;28;1355;-47
2021/03/18 02:50:33;;;;;;;;;;;12.00;59.30;;;;;;2081766;28;1394;-50
2021/03/18 02:51:52;;;;;;;;;;;12.00;59.30;;;;;;2085753;28;1251;-47
2021/03/18 02:53:11;;;;;;;;;;;12.00;59.40;;;;;;2090016;28;1216;-47
2021/03/18 02:54:31;;;;;;;;;;;11.90;59.30;;;;;;2084829;28;1320;-48
2021/03/18 02:55:50;;;;;;;;;;;11.90;59.80;;;;;;2082437;28;1938;-47
2021/03/18 02:57:10;;;;;;;;;;;11.90;59.40;;;;;;2088722;28;1335;-49
2021/03/18 02:58:30;;;;;;;;;;;11.90;59.30;;;;;;2090752;28;1365;-48
2021/03/18 02:59:50;;;;;;;;;;;11.90;59.30;;;;;;2083179;28;1352;-50
2021/03/18 03:01:09;;;;;;;;;;;11.90;59.40;;;;;;2094554;28;1433;-47
2021/03/18 03:02:28;;;;;;;;;;;11.90;59.70;;;;;;2095770;28;1191;-47
2021/03/18 03:03:48;;;;;;;;;;;11.90;59.40;;;;;;2089899;28;1098;-48
2021/03/18 03:05:07;;;;;;;;;;;11.90;59.40;;;;;;2090982;28;1225;-48
2021/03/18 03:06:27;;;;;;;;;;;11.90;59.40;;;;;;2091986;28;1265;-46
2021/03/18 03:07:46;;;;;;;;;;;11.90;59.40;;;;;;2092530;28;1355;-46
2021/03/18 03:09:05;;;;;;;;;;;11.90;59.40;;;;;;2092970;28;1517;-47
2021/03/18 03:10:25;;;;;;;;;;;11.90;59.90;;;;;;2093965;28;1117;-46
2021/03/18 03:11:44;;;;;;;;;;;11.90;59.30;;;;;;2085016;28;1049;-47
2021/03/18 03:13:03;;;;;;;;;;;11.90;59.30;;;;;;2093793;28;944;-46
2021/03/18 03:14:22;;;;;;;;;;;11.90;59.30;;;;;;2092497;28;1159;-46
2021/03/18 03:15:42;;;;;;;;;;;12.00;59.40;;;;;;2095215;28;1964;-46
2021/03/18 03:17:01;;;;;;;;;;;11.90;59.30;;;;;;2085249;28;1327;-47
2021/03/18 03:18:20;;;;;;;;;;;11.90;59.30;;;;;;2091639;28;1132;-47
2021/03/18 03:19:40;;;;;;;;;;;11.90;59.30;;;;;;2085694;28;1267;-48
2021/03/18 03:20:59;;;;;;;;;;;11.90;59.30;;;;;;2078678;28;1241;-48
2021/03/18 03:22:18;;;;;;;;;;;11.90;59.30;;;;;;2079263;28;1307;-47
2021/03/18 03:23:37;;;;;;;;;;;11.90;59.30;;;;;;2089831;28;1372;-47
2021/03/18 03:24:56;;;;;;;;;;;11.90;59.30;;;;;;2092238;28;1045;-47
2021/03/18 03:26:19;;;;;;;;;;;11.90;59.40;;;;;;2094065;28;1465;-47
2021/03/18 03:27:41;;;;;;;;;;;11.90;59.30;;;;;;2097168;28;1333;-47
2021/03/18 03:29:00;;;;;;;;;;;11.90;59.40;;;;;;2086270;28;1724;-47
2021/03/18 03:30:20;;;;;;;;;;;11.90;59.40;;;;;;2095374;28;1347;-47
2021/03/18 03:31:39;;;;;;;;;;;11.90;59.40;;;;;;2086864;28;1180;-47
2021/03/18 03:32:59;;;;;;;;;;;11.90;59.60;;;;;;2085879;28;1348;-47
2021/03/18 03:34:18;;;;;;;;;;;11.90;59.50;;;;;;2093678;28;1085;-47
2021/03/18 03:35:37;;;;;;;;;;;11.90;59.60;;;;;;2092450;28;1290;-48
2021/03/18 03:36:56;;;;;;;;;;;11.90;59.60;;;;;;2090675;28;1443;-46
2021/03/18 03:38:15;;;;;;;;;;;11.80;59.60;;;;;;2096704;28;1142;-47
2021/03/18 03:39:35;;;;;;;;;;;11.80;59.40;;;;;;2096052;28;1261;-46
2021/03/18 03:40:54;;;;;;;;;;;11.80;59.50;;;;;;2094522;28;1192;-47
2021/03/18 03:42:13;;;;;;;;;;;11.90;59.50;;;;;;2098219;28;1317;-49
2021/03/18 03:43:33;;;;;;;;;;;11.80;59.40;;;;;;2091328;28;1368;-47
2021/03/18 03:44:52;;;;;;;;;;;11.80;59.40;;;;;;2092648;28;1326;-46
2021/03/18 03:46:11;;;;;;;;;;;11.80;59.40;;;;;;2095344;28;1180;-48
2021/03/18 03:47:30;;;;;;;;;;;11.80;59.50;;;;;;2091153;28;1388;-46
2021/03/18 03:48:50;;;;;;;;;;;11.80;59.60;;;;;;2093745;28;1424;-47
2021/03/18 03:50:10;;;;;;;;;;;11.80;59.50;;;;;;2086615;28;1298;-48
2021/03/18 03:51:32;;;;;;;;;;;11.80;59.60;;;;;;2092798;28;1284;-48
2021/03/18 03:53:10;;;;;;;;;;;11.80;59.70;;;;;;2088486;28;1385;-48
2021/03/18 03:54:29;;;;;;;;;;;11.80;59.70;;;;;;2092133;28;1183;-48
2021/03/18 03:55:49;;;;;;;;;;;11.80;59.70;;;;;;2092560;28;1901;-48
2021/03/18 03:57:11;;;;;;;;;;;11.80;59.70;;;;;;2093159;28;1482;-49
2021/03/18 03:58:31;;;;;;;;;;;11.80;59.70;;;;;;2094252;28;1370;-46
2021/03/18 03:59:51;;;;;;;;;;;11.80;59.70;;;;;;2085359;28;1536;-49
2021/03/18 04:01:13;;;;;;;;;;;11.80;59.80;;;;;;2090863;28;1119;-46
2021/03/18 04:02:32;;;;;;;;;;;11.80;60.60;;;;;;2086060;28;1269;-48
2021/03/18 04:03:52;;;;;;;;;;;11.80;60.00;;;;;;2088653;28;1371;-47
2021/03/18 04:05:13;;;;;;;;;;;11.80;59.90;;;;;;2083719;28;3075;-45
2021/03/18 04:06:35;;;;;;;;;;;11.80;60.00;;;;;;2086314;28;2392;-46
2021/03/18 04:07:55;;;;;;;;;;;11.70;59.90;;;;;;2088021;28;1366;-48
2021/03/18 04:09:16;;;;;;;;;;;11.70;59.90;;;;;;2087184;28;1492;-47
2021/03/18 04:10:35;;;;;;;;;;;11.70;60.00;;;;;;2086844;28;1358;-47
2021/03/18 04:11:54;;;;;;;;;;;11.70;59.90;;;;;;2079937;28;1244;-46
2021/03/18 04:13:13;;;;;;;;;;;11.70;59.90;;;;;;2081504;28;1895;-47
2021/03/18 04:14:34;;;;;;;;;;;11.70;59.90;;;;;;2078654;28;1195;-46
2021/03/18 04:15:55;;;;;;;;;;;11.70;60.00;;;;;;2089160;28;1902;-46
2021/03/18 04:17:14;;;;;;;;;;;11.70;60.00;;;;;;2087548;28;1261;-47
2021/03/18 04:18:34;;;;;;;;;;;11.70;59.90;;;;;;2091944;28;1415;-47
2021/03/18 04:19:54;;;;;;;;;;;11.70;59.90;;;;;;2091197;28;1410;-46
2021/03/18 04:21:13;;;;;;;;;;;11.70;60.10;;;;;;2095810;28;1216;-46
2021/03/18 04:22:33;;;;;;;;;;;11.70;60.80;;;;;;2091445;28;1243;-46
2021/03/18 04:23:52;;;;;;;;;;;11.70;61.10;;;;;;2081982;28;1251;-46
2021/03/18 04:25:12;;;;;;;;;;;11.70;60.70;;;;;;2082666;28;1392;-46
2021/03/18 04:26:32;;;;;;;;;;;11.70;60.60;;;;;;2087731;28;1382;-46
2021/03/18 04:27:51;;;;;;;;;;;11.60;60.70;;;;;;2094730;28;1380;-47
2021/03/18 04:29:11;;;;;;;;;;;11.60;60.60;;;;;;2094833;28;1569;-46
2021/03/18 04:30:30;;;;;;;;;;;11.60;60.70;;;;;;2089204;28;1260;-48
2021/03/18 04:31:49;;;;;;;;;;;11.60;61.00;;;;;;2091397;28;1339;-48
2021/03/18 04:33:09;;;;;;;;;;;11.60;61.00;;;;;;2088889;28;1169;-46
2021/03/18 04:34:28;;;;;;;;;;;11.60;60.90;;;;;;2093668;28;1182;-46
2021/03/18 04:35:47;;;;;;;;;;;11.60;61.20;;;;;;2094003;28;1934;-46
2021/03/18 04:37:06;;;;;;;;;;;11.60;61.40;;;;;;2094265;28;1397;-47
2021/03/18 04:38:26;;;;;;;;;;;11.60;61.80;;;;;;2093331;28;1392;-46
2021/03/18 04:39:45;;;;;;;;;;;11.60;61.80;;;;;;2092770;28;1270;-48
2021/03/18 04:41:05;;;;;;;;;;;11.60;61.10;;;;;;2092997;28;1204;-46
2021/03/18 04:42:24;;;;;;;;;;;11.60;60.90;;;;;;2090583;28;1276;-47
2021/03/18 04:43:44;;;;;;;;;;;11.60;60.80;;;;;;2089644;28;1384;-45
2021/03/18 04:45:05;;;;;;;;;;;11.60;60.80;;;;;;2089596;28;1400;-50
2021/03/18 04:46:24;;;;;;;;;;;11.60;61.60;;;;;;2090506;28;1316;-48
2021/03/18 04:47:43;;;;;;;;;;;11.60;61.70;;;;;;2089838;28;1381;-49
2021/03/18 04:49:02;;;;;;;;;;;11.60;61.80;;;;;;2088743;28;1420;-48
2021/03/18 04:50:22;;;;;;;;;;;11.70;61.50;;;;;;2088173;28;1361;-46
2021/03/18 04:51:42;;;;;;;;;;;11.70;61.20;;;;;;2094168;28;1343;-48
2021/03/18 04:53:01;;;;;;;;;;;11.70;61.00;;;;;;2091765;28;1314;-47
2021/03/18 04:54:20;;;;;;;;;;;11.70;61.00;;;;;;2087817;28;1164;-47
2021/03/18 04:55:39;;;;;;;;;;;11.70;61.30;;;;;;2089164;28;1363;-46
2021/03/18 04:56:58;;;;;;;;;;;11.60;61.20;;;;;;2092700;28;1214;-49
2021/03/18 04:58:19;;;;;;;;;;;11.70;61.60;;;;;;2092612;28;1232;-48
2021/03/18 04:59:38;;;;;;;;;;;11.60;61.80;;;;;;2092225;28;1453;-47
2021/03/18 05:00:58;;;;;;;;;;;11.60;62.30;;;;;;2091889;28;1195;-48
2021/03/18 05:02:17;;;;;;;;;;;11.60;62.50;;;;;;2081153;28;2785;-48
2021/03/18 05:03:36;;;;;;;;;;;11.60;62.50;;;;;;2085451;28;1176;-47
2021/03/18 05:04:55;;;;;;;;;;;11.60;62.60;;;;;;2078532;28;1324;-47
2021/03/18 05:06:15;;;;;;;;;;;11.60;62.50;;;;;;2087579;28;1206;-47
2021/03/18 05:07:34;;;;;;;;;;;11.60;62.50;;;;;;2082055;28;1633;-48
2021/03/18 05:08:53;;;;;;;;;;;11.60;62.80;;;;;;2071248;28;1429;-47
2021/03/18 05:10:13;;;;;;;;;;;11.60;62.80;;;;;;2085815;28;1282;-47
2021/03/18 05:11:33;;;;;;;;;;;11.60;63.00;;;;;;2078005;28;1256;-46
2021/03/18 05:12:52;;;;;;;;;;;11.50;62.90;;;;;;2089338;28;1209;-45
2021/03/18 05:14:11;;;;;;;;;;;11.50;62.90;;;;;;2086404;28;1355;-47
2021/03/18 05:15:31;;;;;;;;;;;11.50;62.70;;;;;;2084539;28;1596;-47
2021/03/18 05:16:50;;;;;;;;;;;11.50;62.90;;;;;;2085520;28;1220;-46
2021/03/18 05:18:12;;;;;;;;;;;11.50;63.00;;;;;;2085393;28;1415;-46
2021/03/18 05:19:31;;;;;;;;;;;11.50;63.10;;;;;;2085619;28;1166;-46
2021/03/18 05:20:51;;;;;;;;;;;11.50;63.00;;;;;;2089158;28;1218;-46
2021/03/18 05:22:10;;;;;;;;;;;11.50;63.80;;;;;;2091618;28;1401;-48
2021/03/18 05:23:29;;;;;;;;;;;11.50;63.80;;;;;;2076620;28;1171;-46
2021/03/18 05:24:48;;;;;;;;;;;11.50;63.00;;;;;;2077950;28;1158;-47
2021/03/18 05:26:08;;;;;;;;;;;11.50;62.90;;;;;;2083701;28;1456;-47
2021/03/18 05:27:27;;;;;;;;;;;11.50;62.90;;;;;;2090583;28;1247;-47
2021/03/18 05:28:46;;;;;;;;;;;11.50;62.90;;;;;;2091745;28;1518;-46
2021/03/18 05:30:06;;;;;;;;;;;11.50;62.80;;;;;;2090372;28;1241;-47
2021/03/18 05:31:25;;;;;;;;;;;11.50;62.80;;;;;;2089840;28;906;-46
2021/03/18 05:32:45;;;;;;;;;;;11.50;62.70;;;;;;2089907;28;929;-46
2021/03/18 05:34:04;;;;;;;;;;;11.50;62.80;;;;;;2089881;28;1258;-48
2021/03/18 05:35:23;;;;;;;;;;;11.50;62.70;;;;;;2090230;28;1116;-48
2021/03/18 05:36:42;;;;;;;;;;;11.40;62.50;;;;;;2092153;28;1969;-49
2021/03/18 05:38:01;;;;;;;;;;;11.40;62.40;;;;;;2091742;28;1324;-48
2021/03/18 05:39:20;;;;;;;;;;;11.40;62.40;;;;;;2077550;28;1530;-47
2021/03/18 05:40:40;;;;;;;;;;;11.40;63.20;;;;;;2086970;28;1282;-48
2021/03/18 05:42:00;;;;;;;;;;;11.40;62.50;;;;;;2091288;28;1264;-47
2021/03/18 05:43:19;;;;;;;;;;;11.40;62.50;;;;;;2090847;28;1190;-48
2021/03/18 05:44:38;;;;;;;;;;;11.40;62.40;;;;;;2089490;28;1367;-47
2021/03/18 05:45:58;;;;;;;;;;;11.40;62.50;;;;;;2089930;28;1071;-47
2021/03/18 05:47:17;;;;;;;;;;;11.40;62.50;;;;;;2090534;28;1433;-48
2021/03/18 05:48:36;;;;;;;;;;;11.40;62.40;;;;;;2088681;28;1453;-48
2021/03/18 05:49:57;;;;;;;;;;;11.40;62.50;;;;;;2088191;28;1192;-49
2021/03/18 05:51:16;;;;;;;;;;;11.40;62.50;;;;;;2083934;28;1376;-48
2021/03/18 05:52:35;;;;;;;;;;;11.40;62.60;;;;;;2086268;28;1216;-48
2021/03/18 05:53:54;;;;;;;;;;;11.40;62.40;;;;;;2089134;28;1175;-49
2021/03/18 05:55:14;;;;;;;;;;;11.40;62.50;;;;;;2090231;28;1245;-48
2021/03/18 05:56:33;;;;;;;;;;;11.40;62.40;;;;;;2087136;28;1965;-46
2021/03/18 05:57:52;;;;;;;;;;;11.40;62.30;;;;;;2087497;28;1402;-45
2021/03/18 05:59:12;;;;;;;;;;;11.40;62.10;;;;;;2079277;28;1416;-47
2021/03/18 06:00:32;;;;;;;;;;;11.40;62.00;;;;;;2083757;28;1476;-46
2021/03/18 06:01:51;;;;;;;;;;;11.40;62.10;;;;;;2088731;28;2793;-46
2021/03/18 06:03:10;;;;;;;;;;;11.40;61.70;;;;;;2087650;28;1237;-48
2021/03/18 06:04:30;;;;;;;;;;;11.40;61.50;;;;;;2085341;28;1197;-47
2021/03/18 06:05:49;;;;;;;;;;;11.40;61.70;;;;;;2077645;28;1437;-46
2021/03/18 06:07:08;;;;;;;;;;;11.40;61.80;;;;;;2087399;28;1360;-46
2021/03/18 06:08:27;;;;;;;;;;;11.30;61.80;;;;;;2088876;28;1481;-46
2021/03/18 06:09:46;;;;;;;;;;;11.40;62.00;;;;;;2090313;28;1330;-46
2021/03/18 06:11:06;;;;;;;;;;;11.40;62.00;;;;;;2091276;28;1440;-46
2021/03/18 06:12:25;;;;;;;;;;;11.30;62.10;;;;;;2090767;28;1357;-47
2021/03/18 06:13:44;;;;;;;;;;;11.40;62.80;;;;;;2088603;28;1212;-46
2021/03/18 06:15:07;;;;;;;;;;;11.30;62.00;;;;;;2089497;28;1269;-49
2021/03/18 06:16:26;;;;;;;;;;;11.30;62.00;;;;;;2089288;28;1971;-46
2021/03/18 06:17:46;;;;;;;;;;;11.30;62.10;;;;;;2087363;28;1199;-47
2021/03/18 06:19:08;;;;;;;;;;;11.30;62.20;;;;;;2088795;28;1495;-46
2021/03/18 06:20:28;;;;;;;;;;;11.30;62.20;;;;;;2089122;28;1471;-46
2021/03/18 06:21:47;;;;;;;;;;;11.30;62.10;;;;;;2078775;28;1275;-45
2021/03/18 06:23:10;;;;;;;;;;;11.30;62.20;;;;;;2088647;28;1313;-47
2021/03/18 06:24:30;;;;;;;;;;;11.30;62.20;;;;;;2089127;28;1245;-49
2021/03/18 06:25:49;;;;;;;;;;;11.30;62.30;;;;;;2088580;28;1382;-47
2021/03/18 06:27:10;;;;;;;;;;;11.30;62.30;;;;;;2089474;28;1319;-47
2021/03/18 06:28:30;;;;;;;;;;;11.30;62.30;;;;;;2080432;28;1421;-47
2021/03/18 06:29:49;;;;;;;;;;;11.30;62.30;;;;;;2077226;28;1309;-46
2021/03/18 06:31:09;;;;;;;;;;;11.30;62.40;;;;;;2082418;28;1293;-46
2021/03/18 06:32:28;;;;;;;;;;;11.30;62.30;;;;;;2086242;28;1259;-46
2021/03/18 06:33:48;;;;;;;;;;;11.30;63.00;;;;;;2091984;28;1304;-46
2021/03/18 06:35:09;;;;;;;;;;;11.30;62.60;;;;;;2089455;28;1348;-48
2021/03/18 06:36:29;;;;;;;;;;;11.30;62.50;;;;;;2089798;28;1989;-47
2021/03/18 06:37:50;;;;;;;;;;;11.30;62.50;;;;;;2091249;28;1112;-46
2021/03/18 06:39:10;;;;;;;;;;;11.30;62.40;;;;;;2090550;28;1350;-45
2021/03/18 06:40:30;;;;;;;;;;;11.30;62.30;;;;;;2089478;28;1323;-48
2021/03/18 06:41:55;;;;;;;;;;;11.30;62.20;;;;;;2087241;28;1309;-46
2021/03/18 06:43:15;;;;;;;;;;;11.30;62.10;;;;;;2093179;28;1109;-46
2021/03/18 06:44:34;;;;;;;;;;;11.40;62.00;;;;;;2089715;28;1013;-48
2021/03/18 06:45:54;;;;;;;;;;;11.40;61.90;;;;;;2087431;28;1407;-47
2021/03/18 06:47:13;;;;;;;;;;;11.50;61.70;;;;;;2086584;28;1202;-48
2021/03/18 06:48:32;;;;;;;;;;;11.50;61.40;;;;;;2088628;28;1350;-48
2021/03/18 06:50:01;;;;;;;;;;;11.60;61.10;;;;;;2074719;28;1299;-47
2021/03/18 06:51:21;;;;;;;;;;;11.60;60.80;;;;;;2090303;28;1341;-48
2021/03/18 06:52:41;;;;;;;;;;;11.60;60.40;;;;;;2084048;28;2472;-47
2021/03/18 06:53:59;;;;;;;;;;;11.70;60.20;;;;;;2080800;28;1471;-47
2021/03/18 06:55:45;;;;;;;;;;;11.70;60.00;;;;;;2079695;28;1225;-46
2021/03/18 06:57:05;;;;;;;;;;;11.70;59.90;;;;;;2090068;28;1531;-47
2021/03/18 06:58:27;;;;;;;;;;;11.70;59.80;;;;;;2091625;28;1219;-46
2021/03/18 06:59:47;;;;;;;;;;;11.70;59.70;;;;;;2088723;28;1298;-47
2021/03/18 07:01:06;;;;;;;;;;;11.70;59.70;;;;;;2090617;28;1466;-47
2021/03/18 07:02:26;;;;;;;;;;;11.70;60.20;;;;;;2088743;28;3250;-47
2021/03/18 07:03:45;;;;;;;;;;;11.80;59.70;;;;;;2085142;28;3436;-47
2021/03/18 07:05:05;;;;;;;;;;;11.70;59.60;;;;;;2087960;28;1319;-48
2021/03/18 07:06:25;;;;;;;;;;;11.80;59.70;;;;;;2087459;28;1145;-47
2021/03/18 07:07:47;;;;;;;;;;;11.80;59.60;;;;;;2086868;28;1423;-46
2021/03/18 07:09:07;;;;;;;;;;;11.80;59.60;;;;;;2087795;28;1467;-48
2021/03/18 07:10:33;;;;;;;;;;;11.90;59.60;;;;;;2090539;28;1410;-48
2021/03/18 07:11:52;;;;;;;;;;;11.90;59.50;;;;;;2088172;28;1302;-47
2021/03/18 07:13:18;;;;;;;;;;;11.90;59.30;;;;;;2090849;28;1312;-46
2021/03/18 07:14:36;;;;;;;;;;;12.00;59.20;;;;;;2087582;28;1176;-47
2021/03/18 07:15:56;;;;;;;;;;;12.00;59.10;;;;;;2087956;28;1906;-47
2021/03/18 07:17:18;;;;;;;;;;;12.10;58.90;;;;;;2090372;28;1306;-47
2021/03/18 07:18:37;;;;;;;;;;;12.10;59.20;;;;;;2089864;28;1498;-47
2021/03/18 07:20:16;;;;;;;;;;;12.20;58.50;;;;;;2087913;28;1282;-48
2021/03/18 07:21:36;;;;;;;;;;;12.20;58.30;;;;;;2089147;28;1251;-48
2021/03/18 07:22:55;;;;;;;;;;;12.30;58.10;;;;;;2084840;28;1204;-47
2021/03/18 07:24:35;;;;;;;;;;;12.30;58.00;;;;;;2091292;28;1396;-46
2021/03/18 07:25:54;;;;;;;;;;;12.40;57.90;;;;;;2092678;28;1302;-46
2021/03/18 07:27:14;;;;;;;;;;;12.50;57.60;;;;;;2090579;28;859;-46
2021/03/18 07:28:33;;;;;;;;;;;12.50;57.50;;;;;;2089952;28;1428;-46
2021/03/18 07:29:52;;;;;;;;;;;12.60;57.30;;;;;;2085799;28;1445;-47
2021/03/18 07:31:12;;;;;;;;;;;12.60;57.10;;;;;;2088392;28;1184;-48
2021/03/18 07:32:32;;;;;;;;;;;12.70;57.00;;;;;;2090591;28;1211;-47
2021/03/18 07:33:52;;;;;;;;;;;12.70;56.90;;;;;;2089611;28;1039;-48
2021/03/18 07:35:11;;;;;;;;;;;12.80;56.70;;;;;;2086405;28;1347;-48
2021/03/18 07:36:30;;;;;;;;;;;12.80;56.60;;;;;;2088601;28;1898;-47
2021/03/18 07:37:49;;;;;;;;;;;12.90;56.50;;;;;;2089242;28;1381;-47
2021/03/18 07:39:08;;;;;;;;;;;13.00;56.40;;;;;;2092569;28;1586;-45
2021/03/18 07:40:27;;;;;;;;;;;13.00;56.20;;;;;;2089921;28;1135;-45
2021/03/18 07:41:47;;;;;;;;;;;13.10;56.10;;;;;;2091901;28;1123;-45
2021/03/18 07:43:06;;;;;;;;;;;13.10;56.10;;;;;;2089386;28;1165;-46
2021/03/18 07:44:25;;;;;;;;;;;13.30;56.10;;;;;;2090381;28;1254;-47
2021/03/18 07:45:44;;;;;;;;;;;13.30;56.30;;;;;;2091004;28;1324;-49
2021/03/18 07:47:05;;;;;;;;;;;13.40;56.00;;;;;;2082978;28;1431;-48
2021/03/18 07:48:24;;;;;;;;;;;13.50;56.00;;;;;;2087635;28;1307;-46
2021/03/18 07:49:44;;;;;;;;;;;13.60;55.80;;;;;;2087855;28;1333;-49
2021/03/18 07:51:03;;;;;;;;;;;13.70;55.90;;;;;;2076123;28;1237;-50
2021/03/18 07:52:26;;;;;;;;;;;13.70;55.80;;;;;;2084144;28;1610;-49
2021/03/18 07:53:49;;;;;;;;;;;13.80;55.80;;;;;;2088780;28;1077;-48
2021/03/18 07:55:08;;;;;;;;;;;13.90;55.70;;;;;;2087618;28;1446;-48
2021/03/18 07:56:27;;;;;;;;;;;13.90;55.50;;;;;;2088719;28;1914;-48